createdAt,value
2023-01-28T00:00:54.219Z,1.10
2023-01-28T00:03:20.852Z,1.03
2023-01-28T00:05:47.620Z,0.87
2023-01-28T00:08:14.870Z,0.90
2023-01-28T00:10:43.134Z,0.90
2023-01-28T00:13:12.714Z,1.00
2023-01-28T00:15:39.369Z,1.10
2023-01-28T00:18:06.058Z,1.10
2023-01-28T00:20:32.694Z,1.20
2023-01-28T00:22:59.513Z,1.10
2023-01-28T00:25:26.021Z,0.90
2023-01-28T00:27:52.611Z,1.03
2023-01-28T00:30:19.587Z,1.10
2023-01-28T00:32:46.170Z,0.90
2023-01-28T00:35:13.580Z,0.80
2023-01-28T00:37:40.306Z,0.90
2023-01-28T00:40:10.095Z,0.97
2023-01-28T00:42:37.474Z,1.00
2023-01-28T00:45:04.349Z,1.17
2023-01-28T00:47:30.927Z,1.13
2023-01-28T00:49:57.440Z,1.10
2023-01-28T00:52:23.968Z,0.90
2023-01-28T00:54:51.102Z,0.60
2023-01-28T00:57:17.629Z,0.70
2023-01-28T00:59:44.677Z,0.83
2023-01-28T01:02:14.106Z,0.90
2023-01-28T01:04:41.215Z,0.83
2023-01-28T01:07:07.930Z,0.80
2023-01-28T01:09:34.572Z,0.87
2023-01-28T01:12:01.226Z,0.90
2023-01-28T01:14:27.758Z,0.90
2023-01-28T01:16:54.238Z,0.63
2023-01-28T01:19:20.873Z,0.70
2023-01-28T01:21:50.805Z,0.77
2023-01-28T01:24:17.709Z,0.83
2023-01-28T01:26:44.518Z,0.93
2023-01-28T01:29:11.178Z,0.70
2023-01-28T01:31:37.827Z,0.73
2023-01-28T01:34:04.411Z,0.80
2023-01-28T01:36:31.283Z,0.80
2023-01-28T01:38:58.132Z,0.60
2023-01-28T01:41:30.863Z,0.83
2023-01-28T01:44:02.606Z,0.90
2023-01-28T01:46:49.814Z,0.60
2023-01-28T01:49:21.621Z,0.73
2023-01-28T01:51:52.139Z,0.93
2023-01-28T01:54:20.577Z,1.00
2023-01-28T01:56:47.906Z,0.70
2023-01-28T01:59:18.316Z,0.77
2023-01-28T02:01:48.267Z,0.70
2023-01-28T02:04:29.746Z,0.70
2023-01-28T02:06:57.368Z,0.77
2023-01-28T02:09:32.509Z,0.80
2023-01-28T02:12:22.771Z,0.90
2023-01-28T02:14:53.744Z,0.70
2023-01-28T02:17:20.565Z,0.73
2023-01-28T02:19:53.341Z,0.60
2023-01-28T02:22:44.319Z,0.90
2023-01-28T02:25:25.690Z,0.60
2023-01-28T02:28:16.591Z,0.70
2023-01-28T02:30:52.140Z,0.80
2023-01-28T02:33:28.129Z,0.73
2023-01-28T02:35:55.217Z,0.77
2023-01-28T02:38:34.236Z,0.90
2023-01-28T02:41:07.295Z,0.73
2023-01-28T02:43:39.908Z,0.93
2023-01-28T02:46:52.928Z,0.80
2023-01-28T02:49:32.101Z,0.90
2023-01-28T02:52:17.439Z,0.60
2023-01-28T02:55:25.470Z,0.83
2023-01-28T02:58:27.991Z,1.30
2023-01-28T03:01:07.446Z,0.90
2023-01-28T03:03:55.215Z,0.90
2023-01-28T03:06:24.741Z,0.87
2023-01-28T03:09:12.504Z,1.13
2023-01-28T03:12:05.211Z,0.97
2023-01-28T03:14:51.703Z,0.87
2023-01-28T03:17:57.261Z,1.10
2023-01-28T03:20:45.988Z,1.23
2023-01-28T03:23:35.150Z,1.20
2023-01-28T03:26:22.387Z,1.17
2023-01-28T03:29:08.436Z,1.50
2023-01-28T03:31:53.994Z,1.30
2023-01-28T03:34:40.674Z,1.20
2023-01-28T03:37:08.957Z,1.20
2023-01-28T03:39:35.875Z,1.07
2023-01-28T03:42:04.221Z,1.40
2023-01-28T03:44:51.190Z,1.33
2023-01-28T03:47:22.163Z,1.43
2023-01-28T03:49:50.336Z,1.40
2023-01-28T03:52:23.396Z,1.50
2023-01-28T03:54:50.372Z,1.60
2023-01-28T03:57:18.009Z,2.00
2023-01-28T03:59:44.763Z,2.10
2023-01-28T04:02:12.363Z,3.03
2023-01-28T04:04:39.803Z,2.20
2023-01-28T04:07:11.110Z,2.10
2023-01-28T04:09:37.925Z,2.20
2023-01-28T04:12:05.190Z,2.07
2023-01-28T04:14:31.995Z,1.90
2023-01-28T04:16:58.712Z,1.40
2023-01-28T04:19:25.786Z,1.67
2023-01-28T04:21:55.356Z,1.63
2023-01-28T04:24:23.922Z,1.60
2023-01-28T04:26:50.606Z,1.40
2023-01-28T04:29:17.151Z,1.30
2023-01-28T04:31:43.733Z,1.50
2023-01-28T04:34:10.167Z,1.27
2023-01-28T04:36:36.604Z,1.30
2023-01-28T04:39:03.397Z,1.57
2023-01-28T04:41:29.814Z,1.70
2023-01-28T04:43:56.266Z,1.40
2023-01-28T04:46:22.739Z,1.77
2023-01-28T04:48:49.157Z,1.70
2023-01-28T04:51:15.601Z,1.37
2023-01-28T04:53:42.252Z,1.43
2023-01-28T04:56:08.724Z,1.50
2023-01-28T04:58:35.159Z,1.67
2023-01-28T05:01:01.768Z,1.37
2023-01-28T05:03:28.397Z,1.40
2023-01-28T05:05:54.861Z,1.30
2023-01-28T05:08:21.414Z,1.13
2023-01-28T05:10:48.126Z,1.30
2023-01-28T05:13:14.552Z,1.30
2023-01-28T05:15:41.063Z,1.10
2023-01-28T05:18:07.497Z,1.10
2023-01-28T05:20:33.935Z,0.90
2023-01-28T05:23:00.377Z,1.00
2023-01-28T05:25:27.603Z,1.03
2023-01-28T05:27:54.206Z,0.90
2023-01-28T05:30:21.042Z,0.90
2023-01-28T05:32:47.738Z,0.77
2023-01-28T05:35:14.489Z,0.63
2023-01-28T05:37:41.243Z,0.80
2023-01-28T05:40:08.188Z,0.90
2023-01-28T05:42:34.631Z,1.13
2023-01-28T05:45:01.076Z,1.30
2023-01-28T05:47:27.526Z,1.10
2023-01-28T05:49:53.916Z,1.00
2023-01-28T05:52:20.336Z,0.83
2023-01-28T05:54:46.776Z,1.30
2023-01-28T05:57:13.263Z,0.90
2023-01-28T05:59:39.694Z,0.73
2023-01-28T06:02:06.171Z,0.67
2023-01-28T06:04:32.631Z,0.60
2023-01-28T06:06:59.170Z,0.87
2023-01-28T06:09:25.566Z,0.83
2023-01-28T06:11:52.002Z,0.90
2023-01-28T06:14:18.463Z,0.90
2023-01-28T06:16:44.893Z,0.80
2023-01-28T06:19:11.338Z,0.63
2023-01-28T06:21:37.771Z,0.60
2023-01-28T06:24:04.558Z,1.00
2023-01-28T06:26:31.092Z,0.83
2023-01-28T06:28:57.500Z,0.60
2023-01-28T06:31:23.939Z,0.80
2023-01-28T06:33:50.367Z,0.90
2023-01-28T06:36:16.818Z,0.70
2023-01-28T06:38:43.396Z,0.70
2023-01-28T06:41:09.843Z,0.70
2023-01-28T06:43:36.255Z,0.70
2023-01-28T06:46:02.814Z,0.97
2023-01-28T06:48:29.275Z,0.70
2023-01-28T06:50:55.716Z,0.90
2023-01-28T06:53:22.188Z,0.57
2023-01-28T06:55:48.946Z,0.70
2023-01-28T06:58:15.420Z,0.90
2023-01-28T07:00:41.844Z,0.67
2023-01-28T07:03:08.341Z,0.83
2023-01-28T07:05:34.838Z,0.77
2023-01-28T07:08:02.242Z,0.80
2023-01-28T07:10:29.354Z,0.77
2023-01-28T07:12:55.809Z,1.03
2023-01-28T07:15:22.240Z,0.80
2023-01-28T07:17:48.695Z,0.73
2023-01-28T07:20:16.113Z,0.80
2023-01-28T07:22:43.854Z,0.80
2023-01-28T07:25:11.657Z,0.67
2023-01-28T07:27:38.236Z,0.80
2023-01-28T07:30:05.034Z,1.00
2023-01-28T07:32:31.497Z,0.90
2023-01-28T07:34:58.710Z,1.43
2023-01-28T07:37:25.142Z,0.90
2023-01-28T07:39:52.146Z,0.70
2023-01-28T07:42:18.560Z,0.80
2023-01-28T07:44:44.998Z,0.70
2023-01-28T07:47:11.697Z,0.60
2023-01-28T07:49:39.783Z,0.80
2023-01-28T07:52:07.104Z,0.70
2023-01-28T07:54:33.780Z,0.80
2023-01-28T07:57:00.198Z,0.97
2023-01-28T07:59:26.645Z,1.00
2023-01-28T08:01:55.062Z,0.63
2023-01-28T08:04:21.746Z,0.80
2023-01-28T08:06:48.389Z,0.73
2023-01-28T08:09:14.840Z,0.70
2023-01-28T08:11:41.408Z,0.80
2023-01-28T08:14:07.857Z,0.70
2023-01-28T08:16:34.293Z,0.80
2023-01-28T08:19:00.695Z,0.73
2023-01-28T08:21:27.176Z,0.90
2023-01-28T08:23:54.583Z,0.90
2023-01-28T08:26:21.091Z,0.80
2023-01-28T08:28:48.650Z,1.20
2023-01-28T08:31:16.453Z,1.07
2023-01-28T08:33:42.895Z,1.27
2023-01-28T08:36:10.509Z,1.10
2023-01-28T08:38:36.941Z,0.80
2023-01-28T08:41:03.373Z,0.77
2023-01-28T08:43:29.820Z,0.73
2023-01-28T08:45:56.225Z,0.97
2023-01-28T08:48:22.669Z,1.00
2023-01-28T08:50:50.759Z,1.20
2023-01-28T08:53:19.578Z,1.07
2023-01-28T08:55:46.669Z,1.00
2023-01-28T08:58:15.743Z,0.80
2023-01-28T09:00:42.829Z,1.00
2023-01-28T09:03:09.397Z,0.90
2023-01-28T09:05:37.265Z,1.00
2023-01-28T09:08:08.510Z,0.60
2023-01-28T09:10:35.066Z,0.77
2023-01-28T09:13:06.241Z,0.80
2023-01-28T09:15:33.172Z,0.70
2023-01-28T09:17:59.790Z,1.10
2023-01-28T09:20:26.742Z,0.77
2023-01-28T09:22:53.333Z,0.77
2023-01-28T09:25:19.743Z,1.03
2023-01-28T09:27:46.197Z,1.30
2023-01-28T09:30:14.420Z,1.13
2023-01-28T09:32:40.997Z,1.00
2023-01-28T09:35:07.714Z,0.70
2023-01-28T09:37:34.209Z,0.90
2023-01-28T09:40:00.638Z,0.70
2023-01-28T09:42:43.394Z,0.93
2023-01-28T09:45:16.001Z,0.77
2023-01-28T09:47:47.458Z,0.70
2023-01-28T09:50:34.598Z,0.77
2023-01-28T09:53:07.186Z,0.70
2023-01-28T09:55:36.258Z,0.70
2023-01-28T09:58:06.590Z,0.73
2023-01-28T10:00:50.261Z,0.63
2023-01-28T10:03:31.933Z,0.67
2023-01-28T10:06:16.798Z,0.60
2023-01-28T10:08:56.460Z,0.90
2023-01-28T10:11:47.127Z,0.83
2023-01-28T10:14:16.549Z,0.80
2023-01-28T10:17:21.341Z,1.37
2023-01-28T10:19:52.966Z,0.90
2023-01-28T10:22:26.043Z,0.60
2023-01-28T10:27:42.400Z,1.30
2023-01-28T10:30:26.407Z,0.90
2023-01-28T10:32:56.626Z,0.90
2023-01-28T10:35:24.157Z,0.80
2023-01-28T10:37:55.263Z,0.80
2023-01-28T10:40:21.731Z,1.10
2023-01-28T10:42:48.289Z,1.07
2023-01-28T10:45:17.918Z,0.87
2023-01-28T10:48:00.842Z,1.00
2023-01-28T10:50:29.314Z,1.87
2023-01-28T10:53:00.586Z,1.20
2023-01-28T10:55:33.013Z,1.40
2023-01-28T10:57:59.452Z,1.10
2023-01-28T11:00:31.921Z,1.13
2023-01-28T11:02:59.391Z,1.30
2023-01-28T11:05:28.254Z,1.10
2023-01-28T11:08:14.919Z,1.00
2023-01-28T11:10:41.763Z,1.00
2023-01-28T11:13:25.846Z,0.90
2023-01-28T11:16:06.959Z,1.20
2023-01-28T11:18:40.228Z,0.90
2023-01-28T11:21:16.245Z,0.90
2023-01-28T11:23:55.524Z,0.93
2023-01-28T11:26:25.597Z,1.00
2023-01-28T11:28:52.693Z,1.47
2023-01-28T11:31:20.677Z,1.30
2023-01-28T11:33:57.203Z,0.93
2023-01-28T11:36:26.696Z,1.13
2023-01-28T11:39:14.574Z,0.93
2023-01-28T11:41:41.023Z,0.60
2023-01-28T11:44:20.978Z,0.50
2023-01-28T11:47:07.231Z,0.70
2023-01-28T11:49:47.058Z,0.70
2023-01-28T11:53:02.584Z,0.80
2023-01-28T11:55:37.392Z,0.90
2023-01-28T11:58:09.663Z,3.50
2023-01-28T12:00:57.932Z,4.30
2023-01-28T12:03:55.757Z,1.20
2023-01-28T12:06:47.811Z,1.20
2023-01-28T12:09:25.482Z,0.97
2023-01-28T12:12:11.836Z,0.93
2023-01-28T12:15:09.760Z,0.80
2023-01-28T12:18:05.586Z,0.50
2023-01-28T12:20:39.940Z,0.97
2023-01-28T12:23:40.237Z,0.73
2023-01-28T12:26:11.527Z,0.70
2023-01-28T12:29:05.281Z,1.00
2023-01-28T12:31:39.179Z,1.20
2023-01-28T12:34:31.682Z,1.00
2023-01-28T12:37:14.337Z,0.83
2023-01-28T12:40:10.518Z,1.90
2023-01-28T12:42:45.654Z,1.90
2023-01-28T12:45:16.557Z,1.23
2023-01-28T12:47:48.542Z,0.87
2023-01-28T12:50:20.189Z,0.90
2023-01-28T12:52:58.611Z,0.90
2023-01-28T12:55:44.210Z,0.60
2023-01-28T12:58:21.431Z,0.67
2023-01-28T13:00:54.090Z,0.87
2023-01-28T13:03:42.600Z,0.60
2023-01-28T13:06:13.705Z,0.63
2023-01-28T13:08:40.097Z,0.70
2023-01-28T13:11:12.522Z,0.80
2023-01-28T13:13:42.177Z,0.90
2023-01-28T13:16:10.641Z,0.70
2023-01-28T13:18:40.091Z,0.80
2023-01-28T13:21:27.895Z,0.73
2023-01-28T13:24:06.916Z,0.90
2023-01-28T13:26:45.004Z,0.80
2023-01-28T13:29:14.429Z,0.90
2023-01-28T13:31:52.526Z,1.03
2023-01-28T13:34:40.689Z,1.00
2023-01-28T13:37:19.049Z,0.90
2023-01-28T13:39:50.634Z,1.00
2023-01-28T13:42:28.369Z,0.87
2023-01-28T13:44:55.783Z,1.03
2023-01-28T13:47:34.236Z,1.57
2023-01-28T13:50:06.241Z,1.00
2023-01-28T13:52:36.919Z,1.00
2023-01-28T13:55:12.303Z,1.13
2023-01-28T13:58:13.143Z,0.90
2023-01-28T14:01:14.712Z,1.00
2023-01-28T14:03:59.881Z,1.00
2023-01-28T14:06:45.008Z,0.97
2023-01-28T14:09:51.443Z,1.20
2023-01-28T14:12:37.071Z,1.17
2023-01-28T14:15:12.386Z,0.93
2023-01-28T14:17:43.475Z,0.80
2023-01-28T14:20:28.264Z,0.90
2023-01-28T14:23:01.381Z,1.00
2023-01-28T14:25:52.737Z,0.70
2023-01-28T14:28:40.192Z,1.00
2023-01-28T14:31:12.030Z,0.90
2023-01-28T14:33:38.832Z,0.80
2023-01-28T14:36:05.775Z,1.17
2023-01-28T14:38:36.429Z,0.90
2023-01-28T14:41:04.207Z,0.90
2023-01-28T14:43:31.317Z,1.00
2023-01-28T14:46:08.656Z,0.87
2023-01-28T14:48:55.347Z,1.37
2023-01-28T14:51:56.499Z,0.90
2023-01-28T14:54:33.866Z,0.90
2023-01-28T14:57:15.443Z,0.90
2023-01-28T14:59:46.020Z,0.93
2023-01-28T15:02:19.778Z,1.27
2023-01-28T15:04:46.639Z,1.60
2023-01-28T15:07:24.158Z,1.50
2023-01-28T15:10:01.600Z,1.47
2023-01-28T15:12:28.565Z,1.40
2023-01-28T15:14:55.028Z,1.20
2023-01-28T15:17:25.606Z,1.30
2023-01-28T15:19:55.496Z,1.40
2023-01-28T15:22:25.799Z,1.10
2023-01-28T15:24:52.248Z,4.50
2023-01-28T15:27:25.048Z,2.03
2023-01-28T15:29:56.797Z,1.60
2023-01-28T15:32:26.812Z,1.40
2023-01-28T15:34:53.763Z,1.50
2023-01-28T15:37:20.881Z,4.37
2023-01-28T15:39:47.413Z,7.43
2023-01-28T15:42:20.005Z,3.87
2023-01-28T15:44:47.939Z,1.90
2023-01-28T15:47:16.470Z,1.67
2023-01-28T15:49:45.702Z,1.53
2023-01-28T15:52:12.285Z,1.73
2023-01-28T15:54:41.084Z,3.40
2023-01-28T15:57:28.615Z,3.83
2023-01-28T16:00:13.178Z,3.77
2023-01-28T16:02:47.270Z,2.70
2023-01-28T16:05:43.068Z,2.20
2023-01-28T16:08:12.703Z,3.47
2023-01-28T16:10:39.146Z,2.80
2023-01-28T16:13:20.052Z,1.93
2023-01-28T16:15:47.526Z,2.00
2023-01-28T16:18:30.022Z,1.87
2023-01-28T16:20:57.235Z,1.50
2023-01-28T16:23:26.044Z,1.50
2023-01-28T16:26:21.876Z,1.77
2023-01-28T16:28:48.294Z,1.60
2023-01-28T16:31:15.014Z,1.87
2023-01-28T16:33:41.518Z,1.57
2023-01-28T16:36:16.007Z,1.47
2023-01-28T16:38:42.671Z,1.23
2023-01-28T16:41:26.940Z,2.90
2023-01-28T16:43:53.738Z,4.50
2023-01-28T16:46:20.644Z,4.67
2023-01-28T16:48:47.120Z,4.07
2023-01-28T16:51:16.980Z,4.10
2023-01-28T16:53:44.599Z,3.83
2023-01-28T16:56:41.862Z,2.50
2023-01-28T16:59:04.146Z,2.00
2023-01-28T17:01:30.572Z,1.70
2023-01-28T17:03:57.157Z,1.80
2023-01-28T17:06:23.616Z,1.90
2023-01-28T17:08:50.049Z,1.73
2023-01-28T17:11:16.518Z,2.10
2023-01-28T17:13:42.953Z,1.90
2023-01-28T17:16:09.543Z,1.97
2023-01-28T17:18:36.084Z,1.50
2023-01-28T17:21:09.361Z,1.50
2023-01-28T17:23:35.815Z,1.50
2023-01-28T17:26:06.208Z,1.20
2023-01-28T17:28:32.770Z,1.17
2023-01-28T17:30:59.256Z,1.40
2023-01-28T17:33:25.716Z,1.60
2023-01-28T17:35:52.129Z,1.20
2023-01-28T17:38:18.548Z,1.40
2023-01-28T17:40:44.940Z,1.63
2023-01-28T17:43:11.387Z,2.37
2023-01-28T17:45:37.835Z,2.23
2023-01-28T17:48:04.513Z,2.00
2023-01-28T17:50:30.929Z,2.30
2023-01-28T17:52:57.806Z,2.27
2023-01-28T17:55:24.841Z,1.97
2023-01-28T17:57:51.422Z,2.10
2023-01-28T18:00:19.097Z,5.67
2023-01-28T18:02:45.565Z,8.53
2023-01-28T18:05:12.403Z,5.60
2023-01-28T18:07:38.845Z,4.03
2023-01-28T18:10:06.073Z,3.97
2023-01-28T18:12:32.505Z,3.53
2023-01-28T18:14:58.951Z,3.40
2023-01-28T18:17:29.707Z,3.10
2023-01-28T18:19:57.137Z,3.00
2023-01-28T18:22:24.383Z,2.77
2023-01-28T18:24:50.950Z,3.20
2023-01-28T18:27:17.565Z,3.43
2023-01-28T18:29:44.012Z,2.70
2023-01-28T18:32:10.440Z,2.97
2023-01-28T18:34:36.928Z,3.00
2023-01-28T18:37:03.705Z,3.03
2023-01-28T18:39:31.029Z,6.13
2023-01-28T18:41:58.352Z,5.70
2023-01-28T18:44:26.646Z,5.07
2023-01-28T18:46:53.367Z,5.00
2023-01-28T18:49:19.953Z,4.80
2023-01-28T18:51:46.524Z,5.40
2023-01-28T18:54:14.837Z,5.47
2023-01-28T18:56:42.151Z,5.97
2023-01-28T18:59:11.743Z,5.60
2023-01-28T19:01:38.312Z,7.27
2023-01-28T19:04:04.774Z,15.77
2023-01-28T19:06:31.250Z,13.57
2023-01-28T19:09:00.351Z,9.70
2023-01-28T19:11:28.192Z,10.33
2023-01-28T19:13:54.823Z,10.57
2023-01-28T19:16:21.970Z,10.33
2023-01-28T19:18:56.462Z,9.10
2023-01-28T19:21:23.613Z,7.30
2023-01-28T19:24:01.533Z,5.97
2023-01-28T19:26:30.410Z,5.33
2023-01-28T19:28:57.266Z,5.43
2023-01-28T19:31:24.514Z,4.80
2023-01-28T19:33:57.020Z,4.80
2023-01-28T19:36:26.020Z,5.40
2023-01-28T19:38:53.484Z,6.50
2023-01-28T19:41:19.945Z,7.33
2023-01-28T19:43:46.571Z,7.67
2023-01-28T19:46:15.858Z,7.73
2023-01-28T19:48:42.676Z,7.50
2023-01-28T19:51:09.912Z,6.97
2023-01-28T19:53:37.136Z,7.80
2023-01-28T19:56:06.346Z,9.80
2023-01-28T19:58:34.638Z,10.40
2023-01-28T20:01:09.594Z,8.60
2023-01-28T20:03:36.419Z,7.10
2023-01-28T20:06:04.759Z,6.10
2023-01-28T20:08:32.373Z,5.57
2023-01-28T20:11:13.202Z,4.63
2023-01-28T20:13:41.768Z,4.97
2023-01-28T20:16:11.120Z,4.97
2023-01-28T20:18:37.550Z,5.80
2023-01-28T20:21:06.739Z,7.60
2023-01-28T20:23:33.512Z,8.20
2023-01-28T20:26:03.221Z,6.90
2023-01-28T20:28:29.675Z,6.50
2023-01-28T20:30:56.616Z,6.93
2023-01-28T20:33:23.560Z,5.90
2023-01-28T20:35:50.000Z,6.60
2023-01-28T20:38:16.430Z,6.43
2023-01-28T20:40:43.808Z,6.23
2023-01-28T20:43:10.239Z,6.83
2023-01-28T20:45:36.737Z,6.90
2023-01-28T20:48:03.226Z,7.23
2023-01-28T20:50:29.675Z,7.33
2023-01-28T20:52:56.275Z,6.13
2023-01-28T20:55:22.721Z,7.40
2023-01-28T20:57:49.162Z,6.37
2023-01-28T21:00:16.085Z,7.80
2023-01-28T21:02:44.363Z,7.20
2023-01-28T21:05:10.833Z,6.80
2023-01-28T21:07:37.441Z,6.73
2023-01-28T21:10:04.124Z,7.90
2023-01-28T21:12:30.944Z,6.60
2023-01-28T21:14:57.628Z,6.90
2023-01-28T21:17:24.723Z,6.37
2023-01-28T21:19:51.147Z,6.87
2023-01-28T21:22:17.624Z,6.70
2023-01-28T21:24:45.448Z,6.63
2023-01-28T21:27:11.895Z,6.47
2023-01-28T21:29:38.295Z,6.63
2023-01-28T21:32:04.828Z,7.03
2023-01-28T21:34:31.267Z,6.70
2023-01-28T21:36:57.713Z,6.87
2023-01-28T21:39:24.172Z,7.50
2023-01-28T21:41:50.891Z,7.20
2023-01-28T21:44:17.282Z,6.50
2023-01-28T21:46:46.060Z,7.30
2023-01-28T21:49:12.579Z,6.93
2023-01-28T21:51:48.017Z,6.40
2023-01-28T21:54:16.716Z,6.27
2023-01-28T21:56:45.099Z,6.37
2023-01-28T21:59:30.562Z,6.37
2023-01-28T22:02:02.803Z,7.37
2023-01-28T22:04:35.783Z,8.77
2023-01-28T22:07:03.970Z,9.00
2023-01-28T22:09:31.146Z,8.13
2023-01-28T22:11:57.656Z,7.07
2023-01-28T22:14:24.074Z,8.27
2023-01-28T22:16:50.553Z,9.40
2023-01-28T22:19:17.128Z,7.47
2023-01-28T22:21:44.739Z,6.33
2023-01-28T22:24:16.806Z,7.07
2023-01-28T22:26:43.920Z,6.37
2023-01-28T22:29:11.372Z,7.13
2023-01-28T22:31:38.008Z,6.53
2023-01-28T22:34:05.428Z,5.87
2023-01-28T22:36:32.978Z,6.60
2023-01-28T22:39:04.110Z,6.47
2023-01-28T22:41:31.056Z,6.50
2023-01-28T22:43:57.553Z,6.23
2023-01-28T22:46:25.003Z,6.30
2023-01-28T22:48:51.441Z,6.90
2023-01-28T22:51:21.405Z,6.40
2023-01-28T22:53:48.459Z,7.10
2023-01-28T22:56:15.755Z,6.57
2023-01-28T22:58:42.304Z,6.47
2023-01-28T23:01:09.218Z,6.07
2023-01-28T23:03:35.649Z,6.43
2023-01-28T23:06:04.476Z,6.13
2023-01-28T23:08:31.506Z,6.40
2023-01-28T23:11:01.337Z,5.80
2023-01-28T23:13:48.159Z,6.73
2023-01-28T23:16:33.269Z,6.57
2023-01-28T23:19:18.109Z,6.50
2023-01-28T23:22:03.186Z,6.70
2023-01-28T23:24:30.607Z,6.57
2023-01-28T23:26:59.296Z,6.60
2023-01-28T23:29:30.987Z,6.23
2023-01-28T23:32:03.695Z,6.80
2023-01-28T23:34:39.059Z,6.70
2023-01-28T23:37:07.097Z,6.83
2023-01-28T23:39:34.157Z,6.80
2023-01-28T23:42:14.973Z,6.40
2023-01-28T23:44:41.608Z,7.07
2023-01-28T23:47:08.584Z,6.80
2023-01-28T23:49:35.059Z,7.07
2023-01-28T23:52:02.847Z,6.67
2023-01-28T23:54:29.457Z,6.83
2023-01-28T23:56:55.879Z,6.87
2023-01-28T23:59:22.293Z,7.00
